Matlock, Washington
Current Conditions -  °F | °C
As of 3:53 PM on Tuesday 25 Nov 2014 (Local Time) from KSHN Reporting Station
Overcast Overcast  
Wind Chill: 57°   Ceiling: 1300
Heat Index: 57°   Visibility: 10mi
Dew Point: 54°   Wind: 16mph
Humidity: 89%   Direction: 230°SW
Pressure: 30.16"   Gusts: 23mph
Location:  47.24°N, 123.41°W
Report Text: KSHN 252353Z AUTO 23014G20KT 10SM OVC013 14/12 A3016 RMK AO2 SLP214 60017 T01390122 10139 20094 56006
Loading
Personal Weather Stations






























Interactive Weather Map New forecast layout! Learn more

10-Day Weather Forecast

Advertisements
Track Severe Weather on mobile